Time;durP1;ratioP1;P1;durP2;ratioP2;P2;SDS_P1;SDS_P2;PMS_P1;PMS_P2;Temp;Humidity;BMP_temperature;BMP_pressure;BME280_temperature;BME280_humidity;BME280_pressure;Samples;Min_cycle;Max_cycle;Signal;HPM_P1;HPM_P2
2023/11/22 00:01:12;;;;;;;9.20;6.07;;;8.80;95.40;;;;;;5138170;27;20188;-92
2023/11/22 00:03:41;;;;;;;9.90;6.60;;;8.80;95.50;;;;;;5137931;27;20603;-92
2023/11/22 00:06:08;;;;;;;7.82;6.63;;;8.80;95.50;;;;;;5137487;27;20211;-92
2023/11/22 00:08:35;;;;;;;9.13;7.25;;;8.80;95.40;;;;;;5137641;27;20211;-91
2023/11/22 00:11:03;;;;;;;11.07;8.25;;;8.80;95.50;;;;;;5137383;27;20715;-92
2023/11/22 00:13:31;;;;;;;12.40;8.10;;;8.80;95.60;;;;;;5137257;27;20252;-92
2023/11/22 00:15:59;;;;;;;12.32;8.23;;;8.90;95.60;;;;;;5137888;27;20214;-92
2023/11/22 00:18:26;;;;;;;12.10;8.10;;;8.90;95.60;;;;;;5137239;27;20223;-93
2023/11/22 00:20:57;;;;;;;12.35;9.20;;;8.90;95.60;;;;;;5137561;27;20195;-93
2023/11/22 00:23:27;;;;;;;17.02;10.68;;;8.90;95.60;;;;;;5137706;27;20181;-92
2023/11/22 00:25:57;;;;;;;12.60;9.55;;;8.90;95.60;;;;;;5137450;27;20215;-92
2023/11/22 00:28:27;;;;;;;13.20;9.18;;;8.90;95.60;;;;;;5137463;27;20592;-91
2023/11/22 00:30:54;;;;;;;15.75;10.57;;;8.90;95.60;;;;;;5136916;27;20231;-91
2023/11/22 00:33:21;;;;;;;16.23;11.15;;;8.90;95.60;;;;;;5137285;27;20612;-92
2023/11/22 00:35:48;;;;;;;16.52;11.68;;;8.90;95.40;;;;;;5136827;27;20200;-91
2023/11/22 00:38:17;;;;;;;13.55;10.15;;;8.90;95.40;;;;;;5136756;27;20192;-91
2023/11/22 00:40:44;;;;;;;12.10;8.40;;;8.90;95.30;;;;;;5136712;27;20199;-91
2023/11/22 00:43:11;;;;;;;13.60;10.27;;;8.80;95.30;;;;;;5136976;27;20241;-91
2023/11/22 00:45:38;;;;;;;13.93;9.82;;;8.80;95.30;;;;;;5136063;27;20581;-91
2023/11/22 00:48:05;;;;;;;15.70;10.95;;;8.80;95.40;;;;;;5135740;27;20650;-90
2023/11/22 00:50:32;;;;;;;14.85;9.98;;;8.80;95.40;;;;;;5137194;27;20219;-92
2023/11/22 00:53:01;;;;;;;15.75;10.23;;;8.80;95.50;;;;;;5136490;27;20188;-91
2023/11/22 00:55:30;;;;;;;12.95;9.40;;;8.80;95.50;;;;;;5136601;27;20231;-91
2023/11/22 00:58:03;;;;;;;15.45;10.77;;;8.80;95.50;;;;;;5136652;27;20231;-91
2023/11/22 01:00:30;;;;;;;17.63;9.63;;;8.80;95.50;;;;;;5136868;27;20232;-91
2023/11/22 01:02:57;;;;;;;14.13;9.48;;;8.80;95.50;;;;;;5136578;27;20220;-90
2023/11/22 01:05:24;;;;;;;16.38;9.65;;;8.80;95.40;;;;;;5136523;27;20250;-91
2023/11/22 01:07:51;;;;;;;15.43;10.45;;;8.80;95.60;;;;;;5136677;27;20196;-90
2023/11/22 01:10:18;;;;;;;18.35;10.57;;;8.80;95.50;;;;;;5136438;27;20242;-90
2023/11/22 01:12:47;;;;;;;13.77;10.32;;;8.80;95.50;;;;;;5136279;27;20249;-90
2023/11/22 01:15:14;;;;;;;16.65;11.77;;;8.80;95.50;;;;;;5136459;27;20368;-89
2023/11/22 01:17:41;;;;;;;15.95;9.50;;;8.80;95.50;;;;;;5136451;27;20202;-91
2023/11/22 01:20:11;;;;;;;14.80;10.65;;;8.80;95.60;;;;;;5136071;27;20669;-91
2023/11/22 01:22:38;;;;;;;14.15;10.10;;;8.80;95.50;;;;;;5136609;27;20198;-91
2023/11/22 01:25:06;;;;;;;14.00;9.30;;;8.80;95.50;;;;;;5136013;27;20239;-91
2023/11/22 01:27:33;;;;;;;13.75;9.32;;;8.70;95.40;;;;;;5136712;27;20249;-92
2023/11/22 01:30:03;;;;;;;14.95;10.93;;;8.70;95.50;;;;;;5136258;27;20367;-90
2023/11/22 01:32:30;;;;;;;15.68;10.25;;;8.70;95.40;;;;;;5135848;27;20188;-91
2023/11/22 01:34:58;;;;;;;14.90;11.45;;;8.70;95.60;;;;;;5135803;27;20650;-91
2023/11/22 01:37:25;;;;;;;16.17;10.80;;;8.60;95.70;;;;;;5136101;27;20196;-91
2023/11/22 01:39:54;;;;;;;14.90;10.20;;;8.60;95.70;;;;;;5135926;27;20243;-91
2023/11/22 01:42:21;;;;;;;16.70;10.77;;;8.60;95.80;;;;;;5135587;27;20192;-91
2023/11/22 01:44:47;;;;;;;16.52;10.40;;;8.60;95.80;;;;;;5135214;27;20267;-92
2023/11/22 01:47:16;;;;;;;15.18;10.60;;;8.60;95.80;;;;;;5135844;27;20176;-91
2023/11/22 01:49:43;;;;;;;15.35;10.85;;;8.50;96.00;;;;;;5135455;27;20220;-91
2023/11/22 01:52:10;;;;;;;16.05;10.73;;;8.50;96.50;;;;;;5135756;27;20242;-91
2023/11/22 01:54:37;;;;;;;16.85;10.85;;;8.50;96.20;;;;;;5135242;27;20188;-91
2023/11/22 01:57:08;;;;;;;15.00;10.60;;;8.60;96.40;;;;;;5135361;27;20232;-91
2023/11/22 01:59:36;;;;;;;16.08;12.57;;;8.60;96.40;;;;;;5135691;27;20573;-91
2023/11/22 02:02:03;;;;;;;17.67;10.73;;;8.60;96.30;;;;;;5135381;27;20184;-91
2023/11/22 02:04:31;;;;;;;16.05;10.70;;;8.60;96.30;;;;;;5135465;27;20272;-92
2023/11/22 02:06:58;;;;;;;16.00;11.10;;;8.60;96.30;;;;;;5135035;27;20646;-90
2023/11/22 02:09:25;;;;;;;18.10;11.80;;;8.60;96.30;;;;;;5135328;27;20662;-91
2023/11/22 02:11:52;;;;;;;17.73;10.80;;;8.60;96.40;;;;;;5135286;27;20227;-90
2023/11/22 02:14:19;;;;;;;18.38;11.98;;;8.70;96.30;;;;;;5134951;27;20200;-90
2023/11/22 02:16:48;;;;;;;17.15;10.50;;;8.60;96.00;;;;;;5135280;27;20188;-90
2023/11/22 02:19:17;;;;;;;14.23;10.63;;;8.60;96.10;;;;;;5135037;27;20196;-90
2023/11/22 02:21:45;;;;;;;17.83;11.52;;;8.50;96.10;;;;;;5135272;27;20533;-90
2023/11/22 02:24:14;;;;;;;18.63;11.07;;;8.50;96.40;;;;;;5135122;27;20200;-91
2023/11/22 02:26:45;;;;;;;18.90;10.27;;;8.50;96.40;;;;;;5134637;27;20237;-90
2023/11/22 02:29:13;;;;;;;14.18;10.23;;;8.50;96.40;;;;;;5135002;27;20245;-91
2023/11/22 02:31:42;;;;;;;16.95;11.60;;;8.50;96.50;;;;;;5134727;27;20654;-90
2023/11/22 02:34:09;;;;;;;16.70;10.77;;;8.50;96.50;;;;;;5134611;27;20264;-90
2023/11/22 02:36:36;;;;;;;18.65;11.98;;;8.50;96.60;;;;;;5134594;27;20650;-90
2023/11/22 02:39:04;;;;;;;18.42;11.60;;;8.60;96.70;;;;;;5134611;27;20194;-91
2023/11/22 02:41:32;;;;;;;17.38;11.55;;;8.60;96.60;;;;;;5134763;27;20220;-89
2023/11/22 02:44:00;;;;;;;18.00;12.20;;;8.60;96.60;;;;;;5134710;27;20191;-90
2023/11/22 02:46:27;;;;;;;19.30;11.95;;;8.60;96.50;;;;;;5134323;27;20320;-90
2023/11/22 02:48:54;;;;;;;15.25;11.18;;;8.60;96.50;;;;;;5134680;27;20227;-90
2023/11/22 02:51:22;;;;;;;18.50;11.63;;;8.60;96.50;;;;;;5134589;27;20275;-91
2023/11/22 02:53:52;;;;;;;18.02;12.02;;;8.60;96.60;;;;;;5134636;27;20603;-90
2023/11/22 02:56:19;;;;;;;17.50;10.95;;;8.60;96.60;;;;;;5134863;27;20186;-90
2023/11/22 02:58:49;;;;;;;20.17;11.55;;;8.60;96.60;;;;;;5134556;27;20198;-90
2023/11/22 03:01:16;;;;;;;17.55;10.25;;;8.50;96.60;;;;;;5134619;27;20216;-90
2023/11/22 03:03:43;;;;;;;18.98;11.57;;;8.60;97.10;;;;;;5134558;27;20220;-90
2023/11/22 03:06:25;;;;;;;21.40;12.50;;;8.60;96.70;;;;;;5134532;27;20265;-91
2023/11/22 03:08:54;;;;;;;15.25;11.05;;;8.60;96.70;;;;;;5134489;28;20203;-90
2023/11/22 03:11:22;;;;;;;17.20;11.05;;;8.60;96.70;;;;;;5134238;27;20240;-90
2023/11/22 03:13:50;;;;;;;15.27;11.40;;;8.60;96.80;;;;;;5134301;27;20200;-91
2023/11/22 03:16:18;;;;;;;19.15;12.20;;;8.60;96.80;;;;;;5134497;28;20230;-91
2023/11/22 03:18:46;;;;;;;15.32;10.43;;;8.60;96.80;;;;;;5134261;27;20192;-90
2023/11/22 03:21:13;;;;;;;14.70;11.18;;;8.60;96.80;;;;;;5134055;28;20275;-90
2023/11/22 03:23:40;;;;;;;18.08;12.93;;;8.60;96.70;;;;;;5133745;27;20207;-90
2023/11/22 03:26:07;;;;;;;21.15;12.07;;;8.60;96.80;;;;;;5133865;28;20265;-91
2023/11/22 03:28:34;;;;;;;14.50;10.60;;;8.60;96.70;;;;;;5134249;28;20291;-90
2023/11/22 03:31:05;;;;;;;18.50;12.32;;;8.60;96.60;;;;;;5134389;27;20219;-91
2023/11/22 03:33:32;;;;;;;19.45;11.23;;;8.60;96.50;;;;;;5133984;28;20622;-90
2023/11/22 03:35:59;;;;;;;15.95;9.70;;;8.70;96.50;;;;;;5134217;28;20219;-90
2023/11/22 03:38:26;;;;;;;20.73;12.23;;;8.70;96.40;;;;;;5134121;27;20192;-89
2023/11/22 03:40:53;;;;;;;14.38;10.95;;;8.70;96.40;;;;;;5134144;27;20548;-90
2023/11/22 03:43:20;;;;;;;18.80;10.35;;;8.70;96.30;;;;;;5134148;28;20249;-91
2023/11/22 03:45:47;;;;;;;15.07;11.02;;;8.70;96.30;;;;;;5133580;28;20255;-90
2023/11/22 03:48:15;;;;;;;16.80;10.98;;;8.60;96.20;;;;;;5133761;27;20275;-90
2023/11/22 03:50:42;;;;;;;12.23;8.40;;;8.70;96.20;;;;;;5134029;27;20231;-89
2023/11/22 03:53:09;;;;;;;9.23;5.65;;;8.70;96.00;;;;;;5133678;27;20725;-90
2023/11/22 03:55:36;;;;;;;5.47;3.60;;;8.60;95.70;;;;;;5134052;27;20196;-90
2023/11/22 03:58:03;;;;;;;6.90;3.85;;;8.60;95.20;;;;;;5133625;27;20245;-91
2023/11/22 04:00:32;;;;;;;6.45;3.55;;;8.60;94.80;;;;;;5133605;27;20184;-90
2023/11/22 04:03:01;;;;;;;7.68;4.10;;;8.50;94.60;;;;;;5133701;27;20227;-90
2023/11/22 04:05:30;;;;;;;7.95;4.70;;;8.40;94.60;;;;;;5134160;27;20253;-89
2023/11/22 04:07:57;;;;;;;6.45;4.30;;;8.40;94.70;;;;;;5133890;27;20192;-89
2023/11/22 04:10:24;;;;;;;6.85;3.92;;;8.40;94.90;;;;;;5133265;27;20195;-90
2023/11/22 04:12:52;;;;;;;4.90;3.35;;;8.40;94.90;;;;;;5133814;27;20275;-90
2023/11/22 04:15:19;;;;;;;4.90;3.05;;;8.40;95.00;;;;;;5133713;27;20578;-90
2023/11/22 04:17:47;;;;;;;4.07;2.55;;;8.40;94.70;;;;;;5133869;27;20282;-90
2023/11/22 04:20:14;;;;;;;3.45;2.35;;;8.40;94.70;;;;;;5133849;27;20611;-90
2023/11/22 04:22:44;;;;;;;4.25;2.90;;;8.30;94.60;;;;;;5133768;27;20199;-90
2023/11/22 04:25:13;;;;;;;2.88;2.05;;;8.30;94.60;;;;;;5137042;27;20698;-90
2023/11/22 04:27:40;;;;;;;2.97;1.60;;;8.30;94.50;;;;;;5137092;27;20216;-90
2023/11/22 04:30:13;;;;;;;3.53;1.90;;;8.20;94.10;;;;;;5137134;27;20212;-89
2023/11/22 04:32:40;;;;;;;3.13;1.70;;;8.20;94.20;;;;;;5137097;27;20273;-90
2023/11/22 04:35:09;;;;;;;2.63;1.33;;;8.10;93.70;;;;;;5137070;27;20237;-89
2023/11/22 04:37:36;;;;;;;2.92;1.90;;;8.10;92.60;;;;;;5136918;27;20646;-89
2023/11/22 04:40:07;;;;;;;2.95;1.67;;;8.00;92.30;;;;;;5137287;27;20188;-89
2023/11/22 04:42:35;;;;;;;2.90;2.00;;;7.90;92.10;;;;;;5137582;27;20183;-89
2023/11/22 04:45:02;;;;;;;3.22;1.85;;;7.90;91.70;;;;;;5136405;27;20188;-88
2023/11/22 04:47:29;;;;;;;2.88;1.67;;;7.80;91.80;;;;;;5137212;27;20200;-89
2023/11/22 04:49:56;;;;;;;3.85;1.98;;;7.70;91.80;;;;;;5136682;27;20658;-88
2023/11/22 04:52:23;;;;;;;3.15;2.00;;;7.70;92.00;;;;;;5136658;27;20223;-88
2023/11/22 04:54:50;;;;;;;3.38;2.17;;;7.60;91.70;;;;;;5136503;27;20196;-88
2023/11/22 04:57:18;;;;;;;2.90;1.95;;;7.60;91.80;;;;;;5137066;27;20231;-88
2023/11/22 04:59:46;;;;;;;4.38;2.45;;;7.50;91.60;;;;;;5136999;27;20620;-87
2023/11/22 05:02:13;;;;;;;3.95;2.63;;;7.50;91.70;;;;;;5136822;27;20553;-88
2023/11/22 05:04:42;;;;;;;3.25;2.17;;;7.50;91.70;;;;;;5136681;27;20199;-88
2023/11/22 05:07:09;;;;;;;3.30;2.10;;;7.40;91.60;;;;;;5136569;27;20577;-88
2023/11/22 05:09:36;;;;;;;2.95;1.83;;;7.40;91.60;;;;;;5136918;27;20216;-88
2023/11/22 05:12:04;;;;;;;3.10;2.00;;;7.40;91.40;;;;;;5136548;27;20680;-88
2023/11/22 05:14:32;;;;;;;2.75;1.67;;;7.30;91.20;;;;;;5136829;27;20610;-88
2023/11/22 05:16:59;;;;;;;3.22;2.05;;;7.30;90.90;;;;;;5136426;27;20196;-88
2023/11/22 05:19:26;;;;;;;5.65;2.72;;;7.30;90.60;;;;;;5136349;27;20196;-87
2023/11/22 05:21:53;;;;;;;2.92;1.85;;;7.20;90.30;;;;;;5136690;27;20192;-88
2023/11/22 05:24:20;;;;;;;4.15;2.50;;;7.20;90.30;;;;;;5136566;27;20596;-88
2023/11/22 05:26:47;;;;;;;4.10;2.60;;;7.20;90.30;;;;;;5136376;27;20211;-88
2023/11/22 05:29:14;;;;;;;4.50;3.00;;;7.10;90.30;;;;;;5136494;27;20219;-88
2023/11/22 05:31:43;;;;;;;5.05;2.90;;;7.10;90.40;;;;;;5136186;27;20680;-88
2023/11/22 05:34:10;;;;;;;4.10;2.55;;;7.10;90.40;;;;;;5135624;27;20651;-88
2023/11/22 05:36:37;;;;;;;4.63;2.80;;;7.00;90.30;;;;;;5135856;27;20196;-87
2023/11/22 05:39:04;;;;;;;5.53;2.85;;;7.00;90.00;;;;;;5136242;27;20184;-87
2023/11/22 05:41:32;;;;;;;3.65;2.33;;;6.90;89.90;;;;;;5136345;27;20595;-88
2023/11/22 05:44:02;;;;;;;4.13;2.15;;;6.90;89.80;;;;;;5135822;27;20657;-88
2023/11/22 05:46:29;;;;;;;3.85;2.45;;;6.90;89.60;;;;;;5135770;27;20585;-87
2023/11/22 05:49:00;;;;;;;4.60;2.70;;;6.90;89.80;;;;;;5136091;27;20275;-88
2023/11/22 05:51:27;;;;;;;4.18;2.45;;;6.80;90.00;;;;;;5136089;27;20594;-88
2023/11/22 05:53:54;;;;;;;4.03;2.60;;;6.80;90.00;;;;;;5135959;27;20275;-88
2023/11/22 05:56:21;;;;;;;5.18;3.00;;;6.80;90.10;;;;;;5135842;27;20252;-88
2023/11/22 05:58:50;;;;;;;5.30;3.05;;;6.70;90.10;;;;;;5136008;27;20188;-89
2023/11/22 06:01:18;;;;;;;4.05;3.03;;;6.70;90.30;;;;;;5135737;27;20224;-89
2023/11/22 06:03:45;;;;;;;5.03;3.65;;;6.70;90.50;;;;;;5135496;27;20184;-88
2023/11/22 06:06:13;;;;;;;6.25;4.00;;;6.70;90.60;;;;;;5135516;27;20257;-89
2023/11/22 06:08:40;;;;;;;6.05;4.22;;;6.70;90.80;;;;;;5135061;27;20298;-88
2023/11/22 06:11:08;;;;;;;6.68;3.92;;;6.70;90.90;;;;;;5135312;27;20219;-90
2023/11/22 06:13:34;;;;;;;6.35;3.92;;;6.70;90.80;;;;;;5135293;27;20196;-89
2023/11/22 06:16:02;;;;;;;5.18;3.88;;;6.70;90.80;;;;;;5133079;27;20558;-89
2023/11/22 06:18:30;;;;;;;5.25;3.42;;;6.70;90.70;;;;;;5152947;27;20194;-88
2023/11/22 06:20:57;;;;;;;5.50;3.78;;;6.60;90.80;;;;;;5155171;27;20191;-89
2023/11/22 06:23:25;;;;;;;8.70;4.35;;;6.60;90.90;;;;;;5154783;27;20278;-89
2023/11/22 06:25:52;;;;;;;6.20;4.18;;;6.60;91.10;;;;;;5155268;27;20590;-89
2023/11/22 06:28:19;;;;;;;6.80;3.60;;;6.60;91.20;;;;;;5155144;27;20307;-92
2023/11/22 06:30:46;;;;;;;4.78;3.30;;;6.60;91.10;;;;;;5154854;27;20615;-91
2023/11/22 06:33:13;;;;;;;5.97;3.60;;;6.60;91.10;;;;;;5155016;27;20284;-92
2023/11/22 06:35:42;;;;;;;4.32;3.22;;;6.60;90.80;;;;;;5154116;27;20192;-92
2023/11/22 06:38:08;;;;;;;5.35;3.65;;;6.50;90.50;;;;;;5154883;27;20286;-92
2023/11/22 06:40:36;;;;;;;4.30;3.40;;;6.50;90.60;;;;;;5154556;27;20325;-93
2023/11/22 06:43:04;;;;;;;5.68;3.85;;;6.50;89.80;;;;;;5154887;27;20435;-88
2023/11/22 06:45:32;;;;;;;6.80;3.80;;;6.40;88.60;;;;;;5153454;27;20226;-89
2023/11/22 06:47:59;;;;;;;4.88;3.00;;;6.40;88.50;;;;;;5154550;27;20564;-89
2023/11/22 06:50:26;;;;;;;5.03;3.50;;;6.40;88.40;;;;;;5154941;27;20219;-88
2023/11/22 06:52:54;;;;;;;4.70;3.60;;;6.30;87.90;;;;;;5154732;27;20270;-89
2023/11/22 06:55:22;;;;;;;5.50;3.60;;;6.30;87.70;;;;;;5154417;27;20618;-91
2023/11/22 06:57:50;;;;;;;4.93;3.28;;;6.20;87.90;;;;;;5141576;27;20184;-89
2023/11/22 07:00:20;;;;;;;4.85;4.05;;;6.20;88.30;;;;;;5133419;27;20361;-89
2023/11/22 07:02:47;;;;;;;4.20;3.22;;;6.20;87.70;;;;;;5133689;27;20252;-88
2023/11/22 07:05:14;;;;;;;5.20;3.25;;;6.20;87.90;;;;;;5133339;27;20275;-88
2023/11/22 07:07:41;;;;;;;6.10;3.60;;;6.20;87.90;;;;;;5133367;27;20273;-89
2023/11/22 07:10:11;;;;;;;5.00;3.50;;;6.20;88.20;;;;;;5133585;28;20275;-89
2023/11/22 07:12:39;;;;;;;5.05;3.30;;;6.20;88.30;;;;;;5128619;28;20558;-89
2023/11/22 07:15:09;;;;;;;5.22;3.70;;;6.10;88.00;;;;;;5124207;28;20199;-89
2023/11/22 07:17:36;;;;;;;5.40;3.60;;;6.10;88.20;;;;;;5133245;28;20698;-89
2023/11/22 07:20:08;;;;;;;5.65;3.78;;;6.10;88.50;;;;;;5131866;27;20196;-89
2023/11/22 07:22:35;;;;;;;8.88;5.13;;;6.10;89.20;;;;;;5115226;27;20275;-89
2023/11/22 07:25:02;;;;;;;9.98;5.95;;;6.10;88.40;;;;;;5131729;28;20275;-89
2023/11/22 07:27:40;;;;;;;9.50;6.40;;;6.10;87.90;;;;;;5132983;27;20212;-88
2023/11/22 07:30:13;;;;;;;8.82;5.97;;;6.10;87.20;;;;;;5133434;28;20188;-87
2023/11/22 07:35:37;;;;;;;7.60;4.47;;;6.10;87.30;;;;;;5128500;27;20207;-85
2023/11/22 07:38:11;;;;;;;6.38;4.95;;;6.10;87.50;;;;;;5132978;28;20542;-86
2023/11/22 07:40:41;;;;;;;5.85;3.80;;;6.10;88.00;;;;;;5132724;28;20173;-86
2023/11/22 07:43:10;;;;;;;6.68;4.35;;;6.10;87.60;;;;;;5131144;27;20240;-86
2023/11/22 07:45:39;;;;;;;6.93;4.50;;;6.10;88.00;;;;;;5133011;28;20224;-87
2023/11/22 07:48:11;;;;;;;6.18;4.45;;;6.10;88.00;;;;;;5132963;27;20552;-86
2023/11/22 07:50:39;;;;;;;6.43;4.18;;;6.00;87.20;;;;;;5133505;27;20264;-86
2023/11/22 07:53:08;;;;;;;5.65;4.05;;;6.00;88.50;;;;;;5132887;27;20229;-86
2023/11/22 07:55:37;;;;;;;6.40;4.80;;;6.00;87.90;;;;;;5133499;28;20614;-87
2023/11/22 07:58:07;;;;;;;5.35;3.60;;;6.00;88.30;;;;;;5136008;27;20555;-87
2023/11/22 08:00:34;;;;;;;6.03;3.97;;;6.00;88.40;;;;;;5137957;27;20280;-87
2023/11/22 08:03:06;;;;;;;7.70;5.00;;;6.00;88.10;;;;;;5137679;27;20232;-87
2023/11/22 08:05:36;;;;;;;6.57;4.35;;;6.00;88.10;;;;;;5137451;27;20184;-88
2023/11/22 08:08:07;;;;;;;5.40;3.90;;;6.00;87.90;;;;;;5136864;27;20253;-88
2023/11/22 08:10:38;;;;;;;5.53;3.83;;;6.00;87.80;;;;;;5137475;27;20284;-88
2023/11/22 08:13:09;;;;;;;6.43;4.75;;;6.10;88.10;;;;;;5137371;27;20229;-87
2023/11/22 08:15:38;;;;;;;6.65;3.97;;;6.10;88.30;;;;;;5137600;27;20264;-88
2023/11/22 08:18:06;;;;;;;5.63;4.40;;;6.20;88.10;;;;;;5136949;27;20605;-87
2023/11/22 08:20:33;;;;;;;5.95;4.35;;;6.20;87.50;;;;;;5137120;27;20283;-88
2023/11/22 08:23:01;;;;;;;5.10;4.20;;;6.20;87.30;;;;;;5136922;27;20192;-88
2023/11/22 08:25:28;;;;;;;6.75;4.38;;;6.20;87.30;;;;;;5137102;27;20205;-87
2023/11/22 08:27:56;;;;;;;5.85;4.68;;;6.20;87.00;;;;;;5137075;27;20188;-88
2023/11/22 08:30:24;;;;;;;6.75;5.18;;;6.20;87.30;;;;;;5136804;27;20196;-88
2023/11/22 08:32:53;;;;;;;5.50;4.20;;;6.20;87.10;;;;;;5137023;27;20196;-88
2023/11/22 08:35:23;;;;;;;4.82;3.78;;;6.20;87.00;;;;;;5137213;27;20211;-88
2023/11/22 08:37:50;;;;;;;5.53;4.40;;;6.20;87.00;;;;;;5136557;27;20211;-88
2023/11/22 08:40:20;;;;;;;7.00;4.20;;;6.20;86.70;;;;;;5136891;27;20210;-89
2023/11/22 08:42:50;;;;;;;6.55;4.50;;;6.20;86.40;;;;;;5137104;27;20191;-88
2023/11/22 08:45:17;;;;;;;5.10;4.15;;;6.20;86.60;;;;;;5136291;27;20252;-88
2023/11/22 08:47:46;;;;;;;6.10;4.70;;;6.20;86.00;;;;;;5136791;27;20184;-88
2023/11/22 08:50:15;;;;;;;6.45;4.40;;;6.20;85.40;;;;;;5136530;27;20211;-88
2023/11/22 08:52:44;;;;;;;6.13;4.43;;;6.10;85.80;;;;;;5136457;27;20615;-88
2023/11/22 08:55:12;;;;;;;7.00;4.55;;;6.20;85.70;;;;;;5136406;27;20338;-88
2023/11/22 08:57:40;;;;;;;7.03;4.45;;;6.30;84.90;;;;;;5136054;27;20207;-88
2023/11/22 09:00:08;;;;;;;6.03;4.18;;;6.40;85.50;;;;;;5136585;27;20304;-87
2023/11/22 09:02:36;;;;;;;5.15;4.05;;;6.50;85.80;;;;;;5136746;27;20192;-89
2023/11/22 09:05:08;;;;;;;5.22;3.75;;;6.50;85.00;;;;;;5136328;27;20622;-88
2023/11/22 09:07:37;;;;;;;6.93;4.40;;;6.50;85.20;;;;;;5136489;27;20180;-87
2023/11/22 09:10:09;;;;;;;6.22;4.32;;;6.50;85.20;;;;;;5135442;27;20206;-88
2023/11/22 09:12:39;;;;;;;7.30;4.95;;;6.60;84.90;;;;;;5136577;27;20507;-88
2023/11/22 09:15:09;;;;;;;6.55;4.60;;;6.60;83.50;;;;;;5136412;27;20295;-88
2023/11/22 09:17:36;;;;;;;6.07;4.78;;;6.60;83.90;;;;;;5136355;27;20602;-88
2023/11/22 09:20:07;;;;;;;6.07;4.10;;;6.50;83.90;;;;;;5135806;27;20214;-88
2023/11/22 09:22:34;;;;;;;7.82;6.57;;;6.50;84.60;;;;;;5135705;27;20630;-88
2023/11/22 09:25:01;;;;;;;6.38;4.57;;;6.50;84.70;;;;;;5135420;27;20241;-88
2023/11/22 09:27:30;;;;;;;6.20;5.10;;;6.50;84.40;;;;;;5135644;27;20661;-88
2023/11/22 09:29:57;;;;;;;6.88;5.40;;;6.50;84.30;;;;;;5136014;27;20219;-88
2023/11/22 09:32:24;;;;;;;11.38;9.32;;;6.40;84.80;;;;;;5135701;27;20193;-88
2023/11/22 09:34:57;;;;;;;8.13;6.30;;;6.40;85.40;;;;;;5135553;27;20199;-89
2023/11/22 09:37:28;;;;;;;6.03;4.78;;;6.40;85.30;;;;;;5135801;27;20223;-88
2023/11/22 09:39:58;;;;;;;6.50;4.25;;;6.40;85.80;;;;;;5135302;27;20237;-88
2023/11/22 09:42:27;;;;;;;7.07;4.20;;;6.40;86.10;;;;;;5135446;27;20626;-89
2023/11/22 09:44:55;;;;;;;7.00;5.07;;;6.50;85.70;;;;;;5135424;27;20268;-89
2023/11/22 09:47:24;;;;;;;5.72;4.40;;;6.40;85.30;;;;;;5135692;27;20215;-89
2023/11/22 09:49:55;;;;;;;7.90;5.57;;;6.30;85.30;;;;;;5135072;27;20654;-89
2023/11/22 09:52:26;;;;;;;8.02;4.50;;;6.30;86.40;;;;;;5135010;27;20188;-90
2023/11/22 09:54:55;;;;;;;10.38;4.50;;;6.30;87.40;;;;;;5135183;27;20222;-88
2023/11/22 09:57:24;;;;;;;8.32;5.10;;;6.30;88.20;;;;;;5135068;27;20261;-89
2023/11/22 09:59:55;;;;;;;8.05;5.80;;;6.30;88.80;;;;;;5135092;27;20232;-89
2023/11/22 10:02:26;;;;;;;6.75;5.25;;;6.40;89.10;;;;;;5134971;27;20225;-89
2023/11/22 10:04:53;;;;;;;9.07;5.25;;;6.40;88.90;;;;;;5135136;27;20598;-89
2023/11/22 10:07:20;;;;;;;6.80;4.07;;;6.40;89.20;;;;;;5135301;27;20226;-89
2023/11/22 10:09:48;;;;;;;7.00;4.85;;;6.50;88.90;;;;;;5135166;27;20192;-89
2023/11/22 10:12:20;;;;;;;5.95;3.97;;;6.50;89.40;;;;;;5135196;27;20195;-89
2023/11/22 10:14:49;;;;;;;5.00;3.20;;;6.50;89.50;;;;;;5135072;27;20180;-88
2023/11/22 10:17:19;;;;;;;4.28;3.38;;;6.50;89.00;;;;;;5134907;27;20196;-88
2023/11/22 10:19:46;;;;;;;5.88;3.75;;;6.50;88.90;;;;;;5135118;27;20183;-89
2023/11/22 10:22:17;;;;;;;6.25;3.83;;;6.50;88.80;;;;;;5135070;27;20198;-89
2023/11/22 10:24:46;;;;;;;5.07;3.95;;;6.50;89.10;;;;;;5134616;27;20180;-89
2023/11/22 10:27:17;;;;;;;4.82;3.30;;;6.50;89.10;;;;;;5134399;27;20635;-88
2023/11/22 10:29:47;;;;;;;3.90;3.05;;;6.60;88.40;;;;;;5134792;27;20184;-89
2023/11/22 10:32:14;;;;;;;4.25;2.38;;;6.60;88.60;;;;;;5134729;27;20192;-89
2023/11/22 10:34:42;;;;;;;3.55;2.45;;;6.50;88.50;;;;;;5134877;27;20554;-89
2023/11/22 10:37:10;;;;;;;4.25;2.80;;;6.50;88.20;;;;;;5134342;27;20220;-89
2023/11/22 10:39:41;;;;;;;3.88;2.75;;;6.50;88.20;;;;;;5134440;27;20220;-89
2023/11/22 10:42:10;;;;;;;3.47;2.58;;;6.50;87.60;;;;;;5134419;27;20252;-89
2023/11/22 10:44:38;;;;;;;4.28;2.95;;;6.40;87.60;;;;;;5134713;27;20188;-88
2023/11/22 10:47:07;;;;;;;4.97;2.55;;;6.40;87.70;;;;;;5134666;27;20617;-89
2023/11/22 10:49:36;;;;;;;4.47;2.95;;;6.40;87.70;;;;;;5134229;27;20189;-90
2023/11/22 10:52:08;;;;;;;3.70;2.75;;;6.40;87.60;;;;;;5134109;27;20199;-89
2023/11/22 10:54:39;;;;;;;4.30;3.13;;;6.40;87.90;;;;;;5134031;27;20211;-89
2023/11/22 10:57:07;;;;;;;4.50;3.35;;;6.40;88.10;;;;;;5134420;27;20191;-89
2023/11/22 10:59:36;;;;;;;4.75;3.10;;;6.40;88.10;;;;;;5134218;27;20311;-89
2023/11/22 11:02:05;;;;;;;12.55;4.95;;;6.30;87.20;;;;;;5134380;27;20231;-89
2023/11/22 11:04:40;;;;;;;4.60;3.83;;;6.30;87.50;;;;;;5134019;27;20192;-89
2023/11/22 11:07:14;;;;;;;5.05;3.50;;;6.30;86.90;;;;;;5134014;27;20176;-89
2023/11/22 11:09:45;;;;;;;5.28;3.33;;;6.30;87.20;;;;;;5133663;27;20590;-89
2023/11/22 11:12:12;;;;;;;4.47;3.70;;;6.40;87.40;;;;;;5134303;28;20185;-89
2023/11/22 11:14:40;;;;;;;4.05;3.58;;;6.30;87.40;;;;;;5134118;28;20192;-89
2023/11/22 11:17:09;;;;;;;4.03;3.00;;;6.30;87.80;;;;;;5133843;28;20228;-89
2023/11/22 11:19:38;;;;;;;3.85;2.95;;;6.40;87.80;;;;;;5133738;28;20224;-89
2023/11/22 11:22:11;;;;;;;5.15;3.42;;;6.40;87.80;;;;;;5133798;28;20587;-89
2023/11/22 11:24:48;;;;;;;3.97;2.88;;;6.40;87.70;;;;;;5133824;27;20212;-89
2023/11/22 11:27:19;;;;;;;3.47;3.05;;;6.50;87.30;;;;;;5133995;28;20211;-89
2023/11/22 11:29:46;;;;;;;4.63;3.33;;;6.50;87.00;;;;;;5133664;28;20184;-89
2023/11/22 11:32:30;;;;;;;6.53;3.75;;;6.60;86.90;;;;;;5134868;27;20202;-89
2023/11/22 11:34:59;;;;;;;5.88;3.90;;;6.60;86.30;;;;;;5138324;27;20243;-89
2023/11/22 11:37:32;;;;;;;6.70;4.57;;;6.60;86.20;;;;;;5137810;27;20237;-89
2023/11/22 11:40:00;;;;;;;5.75;4.15;;;6.70;86.40;;;;;;5138160;27;20208;-89
2023/11/22 11:42:28;;;;;;;5.03;4.03;;;6.70;85.90;;;;;;5138218;27;20238;-88
2023/11/22 11:45:06;;;;;;;6.40;4.25;;;6.80;86.00;;;;;;5137957;27;20222;-90
2023/11/22 11:47:36;;;;;;;5.53;4.22;;;6.90;85.20;;;;;;5137627;27;20184;-89
2023/11/22 11:50:04;;;;;;;13.75;4.90;;;7.00;85.60;;;;;;5137666;27;20819;-89
2023/11/22 11:52:33;;;;;;;3.80;3.15;;;7.10;85.50;;;;;;5137986;27;20638;-89
2023/11/22 11:55:02;;;;;;;4.63;3.30;;;7.20;85.40;;;;;;5137661;27;20275;-89
2023/11/22 11:57:32;;;;;;;5.18;3.20;;;7.20;84.90;;;;;;5138004;27;20188;-90
2023/11/22 12:00:02;;;;;;;11.48;4.65;;;7.20;84.30;;;;;;5137421;27;20292;-89
2023/11/22 12:02:29;;;;;;;5.20;3.35;;;7.30;84.50;;;;;;5137637;27;20177;-90
2023/11/22 12:04:56;;;;;;;4.72;2.97;;;7.30;84.30;;;;;;5137271;27;20221;-89
2023/11/22 12:07:27;;;;;;;4.07;3.13;;;7.30;84.30;;;;;;5137536;27;20192;-90
2023/11/22 12:09:57;;;;;;;3.50;2.45;;;7.30;83.60;;;;;;5137764;27;20236;-89
2023/11/22 12:12:24;;;;;;;3.78;2.85;;;7.20;82.70;;;;;;5137690;27;20213;-89
2023/11/22 12:14:51;;;;;;;3.60;2.42;;;7.20;81.90;;;;;;5137728;27;20187;-89
2023/11/22 12:17:18;;;;;;;4.47;3.00;;;7.10;82.20;;;;;;5137055;27;20720;-89
2023/11/22 12:19:48;;;;;;;5.55;3.28;;;7.10;82.30;;;;;;5137346;27;20243;-89
2023/11/22 12:22:16;;;;;;;8.57;3.10;;;7.00;82.20;;;;;;5137172;27;20328;-89
2023/11/22 12:24:46;;;;;;;5.13;3.17;;;7.00;83.10;;;;;;5137497;27;20192;-89
2023/11/22 12:27:15;;;;;;;4.50;3.00;;;6.90;83.60;;;;;;5137199;27;20276;-90
2023/11/22 12:29:46;;;;;;;6.05;3.42;;;6.90;83.50;;;;;;5137166;27;20192;-89
2023/11/22 12:32:17;;;;;;;4.15;2.78;;;6.90;83.30;;;;;;5137009;27;20511;-89
2023/11/22 12:34:48;;;;;;;10.52;6.32;;;6.80;83.00;;;;;;5137142;27;20179;-90
2023/11/22 12:37:16;;;;;;;4.30;3.22;;;6.80;83.60;;;;;;5136741;27;20180;-90
2023/11/22 12:39:43;;;;;;;6.40;3.63;;;6.70;83.80;;;;;;5136731;27;20212;-90
2023/11/22 12:42:10;;;;;;;5.15;3.67;;;6.70;84.50;;;;;;5136463;27;20650;-90
2023/11/22 12:44:51;;;;;;;5.55;3.65;;;6.70;85.00;;;;;;5135575;27;20231;-90
2023/11/22 12:47:34;;;;;;;6.65;3.33;;;6.70;85.20;;;;;;5136928;27;20268;-89
2023/11/22 12:50:02;;;;;;;4.32;3.50;;;6.70;85.40;;;;;;5136361;27;20233;-90
2023/11/22 12:52:30;;;;;;;6.20;3.30;;;6.60;85.30;;;;;;5136903;27;20196;-89
2023/11/22 12:54:57;;;;;;;6.55;4.05;;;6.70;85.30;;;;;;5136598;27;20230;-89
2023/11/22 12:57:24;;;;;;;4.47;3.17;;;6.70;85.30;;;;;;5136277;27;20196;-89
2023/11/22 12:59:53;;;;;;;5.50;3.88;;;6.70;85.40;;;;;;5136231;27;20211;-90